Time;durP1;ratioP1;P1;durP2;ratioP2;P2;SDS_P1;SDS_P2;PMS_P1;PMS_P2;Temp;Humidity;BMP_temperature;BMP_pressure;BME280_temperature;BME280_humidity;BME280_pressure;Samples;Min_cycle;Max_cycle;Signal;HPM_P1;HPM_P2
2022/04/02 00:00:28;;;;;;;6.13;3.15;;;;;;;1.37;67.69;101398.03;1056437;28;20376;-78
2022/04/02 00:01:00;;;;;;;4.43;2.67;;;;;;;1.40;67.43;101392.47;1056509;28;20297;-79
2022/04/02 00:01:32;;;;;;;4.03;3.30;;;;;;;1.41;67.64;101399.38;1056369;28;20304;-79
2022/04/02 00:02:04;;;;;;;5.45;2.80;;;;;;;1.38;67.60;101402.31;1056538;28;20293;-78
2022/04/02 00:02:36;;;;;;;2.90;2.35;;;;;;;1.39;67.39;101398.69;1052009;28;20799;-78
2022/04/02 00:03:08;;;;;;;5.00;2.72;;;;;;;1.36;67.92;101393.72;1052786;28;20302;-78
2022/04/02 00:03:40;;;;;;;3.45;3.15;;;;;;;1.34;68.07;101397.44;1056503;28;20304;-78
2022/04/02 00:04:13;;;;;;;3.10;2.42;;;;;;;1.32;68.14;101397.59;1056374;28;20297;-79
2022/04/02 00:04:45;;;;;;;4.38;3.22;;;;;;;1.31;68.16;101398.56;1056270;28;20305;-78
2022/04/02 00:05:16;;;;;;;2.38;2.17;;;;;;;1.31;67.85;101395.94;1056370;28;20289;-79
2022/04/02 00:05:48;;;;;;;3.35;2.75;;;;;;;1.33;68.30;101401.88;1052919;28;20293;-80
2022/04/02 00:06:20;;;;;;;4.47;2.50;;;;;;;1.36;67.65;101401.59;1051996;28;20346;-79
2022/04/02 00:06:53;;;;;;;7.68;2.58;;;;;;;1.34;67.87;101398.28;1052151;28;21561;-79
2022/04/02 00:07:25;;;;;;;5.55;3.03;;;;;;;1.37;67.64;101400.66;1052798;28;20294;-79
2022/04/02 00:07:57;;;;;;;4.97;2.97;;;;;;;1.30;67.54;101391.66;1052731;28;20313;-79
2022/04/02 00:08:28;;;;;;;3.10;2.70;;;;;;;1.29;68.05;101400.50;1056267;28;20774;-78
2022/04/02 00:09:00;;;;;;;4.82;3.08;;;;;;;1.33;68.49;101401.03;1052153;28;20775;-78
2022/04/02 00:09:31;;;;;;;4.38;2.90;;;;;;;1.35;68.21;101394.69;1048434;28;20399;-80
2022/04/02 00:10:05;;;;;;;4.10;2.40;;;;;;;1.33;68.34;101396.63;1051757;28;20297;-79
2022/04/02 00:10:37;;;;;;;4.97;3.33;;;;;;;1.33;68.68;101396.63;1048203;28;20294;-78
2022/04/02 00:11:09;;;;;;;4.57;3.00;;;;;;;1.29;67.99;101395.25;1048729;28;20799;-79
2022/04/02 00:11:40;;;;;;;4.05;2.53;;;;;;;1.30;68.15;101396.09;1047750;28;20345;-78
2022/04/02 00:12:12;;;;;;;6.57;2.63;;;;;;;1.30;68.27;101393.47;1048663;28;20302;-79
2022/04/02 00:12:45;;;;;;;2.90;2.38;;;;;;;1.24;69.52;101394.84;1052722;28;20296;-79
2022/04/02 00:13:16;;;;;;;2.92;2.50;;;;;;;1.24;69.56;101395.69;1056296;28;20347;-79
2022/04/02 00:13:49;;;;;;;4.88;3.42;;;;;;;1.27;69.23;101397.19;1052067;28;20462;-79
2022/04/02 00:14:20;;;;;;;3.88;2.92;;;;;;;1.23;68.82;101390.59;1056519;28;20335;-79
2022/04/02 00:14:52;;;;;;;4.90;2.67;;;;;;;1.26;68.48;101398.16;1056084;28;20898;-79
2022/04/02 00:15:24;;;;;;;3.97;2.47;;;;;;;1.26;67.95;101400.78;1056390;28;20289;-79
2022/04/02 00:15:57;;;;;;;6.05;2.70;;;;;;;1.28;68.17;101393.59;1056527;28;20331;-80
2022/04/02 00:16:29;;;;;;;2.83;2.33;;;;;;;1.21;68.68;101392.53;1051990;28;20795;-79
2022/04/02 00:17:01;;;;;;;3.35;3.05;;;;;;;1.20;68.36;101390.88;1052813;28;20315;-79
2022/04/02 00:17:33;;;;;;;3.30;2.00;;;;;;;1.20;68.86;101401.38;1051856;28;20309;-79
2022/04/02 00:18:05;;;;;;;3.78;2.53;;;;;;;1.24;68.85;101392.25;1052863;28;20282;-79
2022/04/02 00:18:36;;;;;;;4.78;2.45;;;;;;;1.21;68.93;101397.78;1051969;28;20297;-79
2022/04/02 00:19:08;;;;;;;2.65;2.45;;;;;;;1.21;68.51;101392.53;1048339;28;20791;-79
2022/04/02 00:19:39;;;;;;;3.95;3.00;;;;;;;1.23;68.62;101395.84;1051819;28;20786;-79
2022/04/02 00:20:11;;;;;;;7.75;3.33;;;;;;;1.24;68.57;101395.69;1052379;28;20992;-79
2022/04/02 00:20:43;;;;;;;2.97;2.63;;;;;;;1.18;68.35;101401.50;1052407;28;20815;-79
2022/04/02 00:21:15;;;;;;;3.13;2.53;;;;;;;1.22;68.57;101400.25;1056473;28;20368;-79
2022/04/02 00:21:47;;;;;;;4.45;2.88;;;;;;;1.19;68.35;101400.53;1056217;28;20312;-79
2022/04/02 00:22:19;;;;;;;5.75;2.40;;;;;;;1.23;68.08;101403.72;1055553;28;20342;-79
2022/04/02 00:23:46;;;;;;;2.60;2.35;;;;;;;1.25;68.63;101396.50;1054521;28;20294;-79
2022/04/02 00:24:17;;;;;;;3.95;2.35;;;;;;;1.23;67.80;101396.66;1056680;28;20049;-79
2022/04/02 00:24:49;;;;;;;4.15;2.83;;;;;;;1.21;68.10;101392.53;1056422;28;20438;-80
2022/04/02 00:25:20;;;;;;;5.82;2.72;;;;;;;1.20;68.13;101391.69;1056341;28;20354;-79
2022/04/02 00:25:52;;;;;;;3.17;2.80;;;;;;;1.18;68.18;101398.88;1053397;28;20788;-79
2022/04/02 00:26:24;;;;;;;4.80;2.70;;;;;;;1.18;68.99;101398.88;1056148;28;20304;-79
2022/04/02 00:26:56;;;;;;;3.70;2.58;;;;;;;1.23;69.17;101406.31;1056268;28;20659;-79
2022/04/02 00:27:29;;;;;;;7.05;3.38;;;;;;;1.20;69.05;101401.38;1056092;28;20788;-79
2022/04/02 00:28:03;;;;;;;4.40;2.85;;;;;;;1.21;69.03;101405.66;1051868;28;20305;-79
2022/04/02 00:28:36;;;;;;;3.13;2.63;;;;;;;1.20;68.64;101399.56;1051970;28;20293;-79
2022/04/02 00:29:11;;;;;;;3.92;2.70;;;;;;;1.21;68.42;101398.59;1053380;28;20791;-79
2022/04/02 00:29:42;;;;;;;2.95;2.60;;;;;;;1.20;68.20;101396.13;1056568;28;20285;-79
2022/04/02 00:30:14;;;;;;;3.90;2.55;;;;;;;1.23;68.41;101401.09;1056480;28;20293;-79
2022/04/02 00:30:46;;;;;;;3.63;2.50;;;;;;;1.23;68.56;101403.72;1056138;28;20438;-79
2022/04/02 00:31:19;;;;;;;3.80;2.85;;;;;;;1.18;68.98;101405.94;1056151;28;20293;-79
2022/04/02 00:31:51;;;;;;;7.45;3.05;;;;;;;1.19;69.12;101418.91;1056342;28;20635;-79
2022/04/02 00:32:22;;;;;;;5.00;3.38;;;;;;;1.19;68.92;101405.78;1056247;28;20308;-79
2022/04/02 00:32:58;;;;;;;4.93;2.58;;;;;;;1.17;68.82;101407.72;1051775;28;20298;-80
2022/04/02 00:33:31;;;;;;;5.68;2.80;;;;;;;1.17;68.94;101406.91;1051994;28;20298;-79
2022/04/02 00:34:02;;;;;;;5.32;2.60;;;;;;;1.21;68.10;101405.66;1049221;28;20333;-79
2022/04/02 00:34:35;;;;;;;2.85;2.50;;;;;;;1.21;68.36;101408.28;1052480;28;20312;-79
2022/04/02 00:35:08;;;;;;;3.35;2.70;;;;;;;1.19;67.96;101404.97;1056036;28;20794;-78
2022/04/02 00:35:40;;;;;;;6.05;3.17;;;;;;;1.23;68.01;101411.56;1056409;28;20894;-79
2022/04/02 00:36:13;;;;;;;2.45;2.25;;;;;;;1.21;68.31;101403.84;1051873;28;20306;-79
2022/04/02 00:36:45;;;;;;;5.97;2.72;;;;;;;1.20;67.80;101396.13;1047903;28;20302;-80
2022/04/02 00:37:16;;;;;;;6.60;3.10;;;;;;;1.18;68.05;101405.94;1043500;28;20299;-80
2022/04/02 00:37:49;;;;;;;4.75;3.00;;;;;;;1.15;68.22;101403.59;1045218;28;20425;-79
2022/04/02 00:38:20;;;;;;;4.13;2.58;;;;;;;1.13;68.01;101408.16;1052673;28;20687;-79
2022/04/02 00:38:52;;;;;;;3.92;3.05;;;;;;;1.19;68.04;101415.47;1056188;28;20305;-79
2022/04/02 00:39:23;;;;;;;3.42;2.67;;;;;;;1.16;67.83;101406.06;1056677;28;20771;-78
2022/04/02 00:39:55;;;;;;;3.30;2.53;;;;;;;1.16;68.02;101406.06;1056421;28;20303;-79
2022/04/02 00:40:28;;;;;;;4.05;2.95;;;;;;;1.19;67.95;101411.03;1056311;27;20297;-78
2022/04/02 00:41:00;;;;;;;5.45;2.88;;;;;;;1.27;67.51;101404.25;1051671;28;20298;-79
2022/04/02 00:41:31;;;;;;;2.83;2.63;;;;;;;1.22;67.57;101409.91;1049780;28;20641;-80
2022/04/02 00:42:03;;;;;;;5.30;3.20;;;;;;;1.23;67.62;101406.31;1051777;28;20290;-79
2022/04/02 00:42:35;;;;;;;3.10;2.45;;;;;;;1.23;67.66;101406.31;1051962;28;20305;-78
2022/04/02 00:43:06;;;;;;;4.18;2.75;;;;;;;1.26;67.70;101406.03;1056561;28;20285;-79
2022/04/02 00:43:42;;;;;;;3.25;2.88;;;;;;;1.21;67.47;101403.03;1056265;28;20705;-79
2022/04/02 00:44:17;;;;;;;4.75;2.60;;;;;;;1.20;67.71;101398.75;1056129;28;20293;-80
2022/04/02 00:44:48;;;;;;;6.68;2.78;;;;;;;1.16;68.77;101406.06;1051757;28;20633;-79
2022/04/02 00:45:20;;;;;;;2.88;2.55;;;;;;;1.20;67.93;101406.63;1052018;28;20344;-79
2022/04/02 00:45:53;;;;;;;2.92;2.63;;;;;;;1.13;68.96;101410.78;1051915;28;20301;-79
2022/04/02 00:46:25;;;;;;;3.75;2.75;;;;;;;1.15;68.73;101414.09;1052900;28;20373;-78
2022/04/02 00:46:57;;;;;;;7.03;2.95;;;;;;;1.15;68.86;101404.41;1056700;28;20438;-79
2022/04/02 00:47:29;;;;;;;3.00;2.65;;;;;;;1.13;69.44;101413.41;1055875;28;20304;-78
2022/04/02 00:48:00;;;;;;;5.00;2.63;;;;;;;1.13;69.46;101410.78;1053623;28;20519;-79
2022/04/02 00:48:32;;;;;;;4.75;3.13;;;;;;;1.14;69.25;101418.50;1047520;28;20349;-79
2022/04/02 00:49:05;;;;;;;2.75;2.55;;;;;;;1.14;68.60;101412.44;1047307;28;20287;-80
2022/04/02 00:49:57;;;;;;;5.00;2.85;;;;;;;1.12;68.72;101414.38;1050346;28;20791;-79
2022/04/02 00:50:29;;;;;;;4.68;2.72;;;;;;;1.15;68.40;101404.41;1055115;28;20359;-80
2022/04/02 00:51:05;;;;;;;4.28;2.40;;;;;;;1.14;68.43;101410.63;1052106;28;20380;-78
2022/04/02 00:51:41;;;;;;;2.35;2.15;;;;;;;1.13;68.92;101410.78;1048018;28;20291;-79
2022/04/02 00:52:13;;;;;;;3.15;2.85;;;;;;;1.08;68.63;101413.78;1054194;28;20301;-79
2022/04/02 00:52:45;;;;;;;4.57;2.72;;;;;;;1.08;68.64;101407.72;1057824;27;20294;-79
2022/04/02 00:53:18;;;;;;;5.80;2.80;;;;;;;1.12;68.47;101403.88;1060324;27;20308;-79
2022/04/02 00:53:51;;;;;;;4.07;2.53;;;;;;;1.18;68.36;101416.44;1054723;28;20300;-79
2022/04/02 00:54:23;;;;;;;3.08;2.47;;;;;;;1.11;68.31;101405.66;1047579;28;20299;-80
2022/04/02 00:54:55;;;;;;;2.70;2.47;;;;;;;1.16;68.07;101410.50;1047835;28;20302;-79
2022/04/02 00:55:30;;;;;;;4.95;2.67;;;;;;;1.14;68.63;101407.19;1052604;28;20293;-78
2022/04/02 00:56:04;;;;;;;2.97;2.53;;;;;;;1.16;68.86;101410.50;1048887;28;20361;-79
2022/04/02 00:56:37;;;;;;;4.22;2.70;;;;;;;1.11;68.97;101408.28;1051292;28;20640;-78
2022/04/02 00:57:09;;;;;;;3.17;2.63;;;;;;;1.11;68.74;101407.47;1051962;28;20301;-78
2022/04/02 00:57:40;;;;;;;3.22;2.70;;;;;;;1.08;69.02;101402.47;1048167;28;20325;-79
2022/04/02 00:58:12;;;;;;;3.25;2.65;;;;;;;1.10;69.06;101408.44;1043684;28;20303;-79
2022/04/02 00:58:44;;;;;;;5.13;2.90;;;;;;;1.08;69.01;101408.56;1039311;28;20299;-79
2022/04/02 00:59:18;;;;;;;9.43;2.72;;;;;;;1.12;68.16;101403.88;1039068;28;20304;-79
2022/04/02 00:59:49;;;;;;;3.67;2.97;;;;;;;1.15;68.39;101403.59;1033819;28;20372;-79
2022/04/02 01:00:23;;;;;;;2.72;2.40;;;;;;;1.15;68.46;101408.84;1036627;28;20304;-79
2022/04/02 01:00:55;;;;;;;5.68;3.08;;;;;;;1.09;68.18;101409.38;1036919;28;20838;-78
2022/04/02 01:01:31;;;;;;;4.47;3.17;;;;;;;1.14;67.99;101412.44;1045635;28;20307;-79
2022/04/02 01:02:04;;;;;;;5.32;3.05;;;;;;;1.11;67.79;101407.47;1048488;28;20361;-78
2022/04/02 01:02:36;;;;;;;4.13;2.88;;;;;;;1.09;68.43;101409.38;1045148;28;20684;-78
2022/04/02 01:03:10;;;;;;;5.70;2.90;;;;;;;1.10;68.03;101405.81;1042204;28;20879;-78
2022/04/02 01:03:43;;;;;;;4.32;2.58;;;;;;;1.10;68.84;101411.06;1039319;28;20690;-79
2022/04/02 01:04:15;;;;;;;4.13;2.60;;;;;;;1.12;68.87;101409.13;1043649;28;20302;-79
2022/04/02 01:04:48;;;;;;;2.88;2.60;;;;;;;1.10;68.51;101413.69;1047844;28;20301;-79
2022/04/02 01:05:20;;;;;;;3.15;2.53;;;;;;;1.12;68.54;101409.94;1045422;28;20303;-78
2022/04/02 01:05:53;;;;;;;3.15;2.53;;;;;;;1.16;68.12;101410.50;1048464;28;20824;-78
2022/04/02 01:06:30;;;;;;;8.45;2.95;;;;;;;1.11;68.48;101412.72;1043559;28;20311;-78
2022/04/02 01:07:03;;;;;;;4.25;2.47;;;;;;;1.09;68.71;101410.19;1048235;28;20414;-78
2022/04/02 01:07:35;;;;;;;2.80;2.30;;;;;;;1.09;68.92;101415.44;1053514;28;20298;-78
2022/04/02 01:08:07;;;;;;;6.10;3.17;;;;;;;1.10;68.89;101411.06;1052627;28;20585;-78
2022/04/02 01:08:40;;;;;;;3.88;3.20;;;;;;;1.09;68.71;101417.25;1046538;28;20307;-78
2022/04/02 01:09:14;;;;;;;2.97;2.67;;;;;;;1.11;68.66;101417.97;1039510;28;20303;-78
2022/04/02 01:09:51;;;;;;;2.58;2.33;;;;;;;1.05;68.89;101418.50;1040940;28;20367;-78
2022/04/02 01:10:23;;;;;;;3.55;2.63;;;;;;;1.07;69.24;101417.38;1042632;28;20387;-78
2022/04/02 01:10:57;;;;;;;4.85;3.10;;;;;;;1.07;68.52;101419.19;1046265;28;20803;-78
2022/04/02 01:11:37;;;;;;;3.75;2.88;;;;;;;1.03;68.98;101423.06;1043382;28;20665;-78
2022/04/02 01:12:10;;;;;;;5.05;3.10;;;;;;;1.08;69.05;101418.22;1047614;28;20302;-78
2022/04/02 01:12:44;;;;;;;3.92;2.65;;;;;;;1.04;68.74;101422.09;1047625;28;20303;-79
2022/04/02 01:13:18;;;;;;;5.07;3.13;;;;;;;1.08;68.21;101419.03;1049639;28;20349;-79
2022/04/02 01:13:50;;;;;;;3.28;2.78;;;;;;;1.10;68.67;101421.56;1044834;28;20315;-78
2022/04/02 01:14:24;;;;;;;4.88;3.47;;;;;;;1.13;68.44;101416.84;1044374;28;20306;-79
2022/04/02 01:15:01;;;;;;;3.33;2.80;;;;;;;1.08;68.60;101415.59;1053345;28;20352;-78
2022/04/02 01:15:43;;;;;;;3.97;2.90;;;;;;;1.05;68.87;101426.38;1055005;28;20728;-78
2022/04/02 01:16:18;;;;;;;6.15;2.55;;;;;;;1.03;68.97;101430.94;1052004;28;20301;-79
2022/04/02 01:16:51;;;;;;;3.70;2.78;;;;;;;1.07;68.71;101427.06;1045277;28;20311;-78
2022/04/02 01:17:26;;;;;;;5.10;3.15;;;;;;;1.05;69.05;101423.75;1047704;28;20302;-78
2022/04/02 01:17:58;;;;;;;9.13;2.83;;;;;;;1.08;68.91;101431.34;1052553;28;20297;-78
2022/04/02 01:18:35;;;;;;;3.15;2.60;;;;;;;1.05;68.94;101429.00;1052000;28;20302;-78
2022/04/02 01:19:07;;;;;;;2.88;2.03;;;;;;;1.04;68.87;101429.97;1053743;28;20801;-78
2022/04/02 01:19:42;;;;;;;4.65;2.42;;;;;;;1.05;69.28;101429.81;1051533;28;20345;-78
2022/04/02 01:20:29;;;;;;;3.30;2.65;;;;;;;1.03;69.15;101439.63;1047918;28;20428;-78
2022/04/02 01:21:03;;;;;;;4.18;2.55;;;;;;;1.02;69.39;101430.09;1041700;28;20797;-78
2022/04/02 01:21:46;;;;;;;3.42;2.42;;;;;;;1.02;69.49;101429.28;1048091;28;20299;-78
2022/04/02 01:22:43;;;;;;;3.90;2.13;;;;;;;1.03;69.61;101429.13;1052428;27;20047;-78
2022/04/02 01:23:15;;;;;;;2.35;2.15;;;;;;;1.02;69.45;101437.97;1060349;27;20126;-79
2022/04/02 01:23:49;;;;;;;3.55;2.38;;;;;;;1.02;69.44;101434.53;1051801;28;20302;-78
2022/04/02 01:24:22;;;;;;;2.47;2.28;;;;;;;1.03;69.96;101433.56;1047567;28;20410;-78
2022/04/02 01:24:57;;;;;;;6.78;3.00;;;;;;;0.99;69.44;101435.63;1047675;28;20295;-78
2022/04/02 01:25:35;;;;;;;6.43;2.90;;;;;;;0.96;69.65;101438.53;1045082;28;20457;-78
2022/04/02 01:26:14;;;;;;;4.13;2.83;;;;;;;0.98;69.96;101435.78;1042109;28;20369;-78
2022/04/02 01:26:52;;;;;;;5.40;2.95;;;;;;;0.98;70.11;101441.00;1046044;28;20693;-78
2022/04/02 01:27:27;;;;;;;3.95;2.72;;;;;;;1.02;69.50;101440.59;1043369;28;20724;-78
2022/04/02 01:28:04;;;;;;;4.15;2.75;;;;;;;1.06;69.15;101438.53;1049536;28;20344;-78
2022/04/02 01:28:38;;;;;;;3.30;2.85;;;;;;;1.01;69.71;101433.69;1043454;28;20700;-78
2022/04/02 01:29:15;;;;;;;3.88;2.78;;;;;;;0.97;69.47;101431.50;1045652;28;20896;-78
2022/04/02 01:29:52;;;;;;;3.50;2.65;;;;;;;0.97;70.07;101434.13;1045531;28;20318;-78
2022/04/02 01:30:25;;;;;;;4.22;2.80;;;;;;;0.97;69.40;101432.31;1054026;28;20834;-78
2022/04/02 01:30:58;;;;;;;3.08;2.78;;;;;;;1.00;69.76;101434.66;1043195;28;20306;-77
2022/04/02 01:31:30;;;;;;;4.13;2.88;;;;;;;0.96;69.42;101435.09;1043340;28;20318;-79
2022/04/02 01:32:03;;;;;;;3.05;2.45;;;;;;;0.95;69.64;101438.69;1038015;28;20313;-79
2022/04/02 01:32:37;;;;;;;4.15;3.10;;;;;;;0.88;69.92;101439.22;1043790;28;20402;-79
2022/04/02 01:33:14;;;;;;;3.95;2.72;;;;;;;0.90;69.75;101432.06;1049581;28;20299;-78
2022/04/02 01:33:48;;;;;;;3.38;2.25;;;;;;;0.96;70.02;101440.34;1050773;28;20298;-78
2022/04/02 01:34:20;;;;;;;3.28;2.92;;;;;;;1.01;69.17;101428.44;1046239;28;20307;-78
2022/04/02 01:34:54;;;;;;;4.93;2.90;;;;;;;1.01;69.45;101425.00;1044445;28;20860;-78
2022/04/02 01:35:26;;;;;;;6.80;3.05;;;;;;;1.02;68.81;101429.28;1047868;28;20752;-77
2022/04/02 01:36:11;;;;;;;3.15;2.85;;;;;;;0.93;69.11;101437.03;1047573;28;20298;-78
2022/04/02 01:36:53;;;;;;;5.03;3.05;;;;;;;0.96;69.23;101435.91;1046994;28;20313;-78
2022/04/02 01:37:32;;;;;;;3.33;2.78;;;;;;;0.96;69.42;101435.09;1043776;28;20392;-78
2022/04/02 01:38:07;;;;;;;2.88;2.58;;;;;;;0.98;69.00;101435.78;1046206;28;20668;-78
2022/04/02 01:38:38;;;;;;;3.88;2.95;;;;;;;1.01;68.83;101432.88;1045211;28;20362;-78
2022/04/02 01:39:10;;;;;;;3.78;3.08;;;;;;;1.00;69.03;101433.84;1048476;28;20363;-78
2022/04/02 01:39:43;;;;;;;2.58;2.38;;;;;;;1.01;68.99;101432.88;1047965;28;20330;-78
2022/04/02 01:40:19;;;;;;;3.28;2.97;;;;;;;0.99;69.29;101429.56;1047554;28;20707;-78
2022/04/02 01:40:51;;;;;;;3.45;2.30;;;;;;;0.96;69.43;101435.09;1044549;28;20303;-77
2022/04/02 01:41:29;;;;;;;4.25;2.28;;;;;;;0.99;69.57;101433.00;1043155;28;20311;-78
2022/04/02 01:42:06;;;;;;;3.53;2.42;;;;;;;0.97;69.72;101431.50;1043603;28;20445;-78
2022/04/02 01:42:44;;;;;;;5.65;2.50;;;;;;;0.98;69.26;101433.16;1046164;28;20305;-78
2022/04/02 01:43:16;;;;;;;3.95;2.80;;;;;;;0.95;69.32;101430.81;1045589;28;20307;-78
2022/04/02 01:43:55;;;;;;;8.85;2.40;;;;;;;0.91;69.36;101431.09;1049920;28;20385;-78
2022/04/02 01:44:26;;;;;;;3.20;2.63;;;;;;;0.92;69.45;101435.38;1051773;28;20467;-77
2022/04/02 01:44:59;;;;;;;3.55;2.53;;;;;;;0.88;69.93;101434.00;1049055;28;20301;-78
2022/04/02 01:46:01;;;;;;;3.38;2.08;;;;;;;0.93;70.04;101434.41;1051239;28;20294;-78
2022/04/02 01:46:34;;;;;;;3.63;2.60;;;;;;;0.92;69.22;101438.00;1047500;28;20116;-78
2022/04/02 01:47:06;;;;;;;6.57;3.10;;;;;;;0.88;69.96;101431.38;1047243;28;20325;-78
2022/04/02 01:47:37;;;;;;;3.97;2.60;;;;;;;0.88;70.17;101434.00;1051806;28;20819;-78
2022/04/02 01:48:10;;;;;;;3.97;2.88;;;;;;;0.88;69.80;101436.63;1052931;28;20738;-77
2022/04/02 01:48:49;;;;;;;5.60;3.17;;;;;;;0.91;69.83;101438.97;1057739;27;20305;-77
2022/04/02 01:49:20;;;;;;;6.22;2.67;;;;;;;0.88;69.79;101439.22;1054351;28;20301;-79
2022/04/02 01:49:52;;;;;;;3.08;2.75;;;;;;;0.92;69.21;101440.59;1047710;28;20306;-78
2022/04/02 01:50:24;;;;;;;3.08;2.40;;;;;;;0.91;69.38;101433.72;1044803;28;20674;-77
2022/04/02 01:50:57;;;;;;;4.55;2.70;;;;;;;0.96;69.16;101440.34;1048242;28;20863;-77
2022/04/02 01:51:31;;;;;;;4.90;2.95;;;;;;;0.89;69.79;101430.41;1048232;28;20393;-77
2022/04/02 01:52:03;;;;;;;3.90;3.50;;;;;;;0.92;69.22;101440.59;1047665;28;20299;-78
2022/04/02 01:52:34;;;;;;;4.45;2.25;;;;;;;0.91;69.59;101433.72;1043375;28;20322;-78
2022/04/02 01:53:09;;;;;;;3.45;2.50;;;;;;;0.89;69.54;101440.88;1045114;28;20303;-77
2022/04/02 01:53:42;;;;;;;3.20;2.70;;;;;;;0.90;70.11;101445.16;1051618;28;20448;-78
2022/04/02 01:54:17;;;;;;;4.07;2.40;;;;;;;0.88;69.92;101441.84;1047496;28;20393;-78
2022/04/02 01:54:49;;;;;;;4.68;2.40;;;;;;;0.91;69.75;101451.25;1044874;28;20801;-78
2022/04/02 01:55:22;;;;;;;5.40;2.55;;;;;;;0.89;69.85;101438.28;1044350;28;20303;-77
2022/04/02 01:56:01;;;;;;;5.35;2.53;;;;;;;0.90;69.58;101447.78;1045385;28;20311;-78
2022/04/02 01:56:42;;;;;;;4.82;2.88;;;;;;;0.84;70.54;101443.09;1050398;28;20388;-78
2022/04/02 01:57:16;;;;;;;5.40;2.72;;;;;;;0.87;70.08;101445.44;1050273;28;20305;-78
2022/04/02 01:57:49;;;;;;;3.13;2.63;;;;;;;0.90;69.52;101452.22;1049693;28;20338;-78
2022/04/02 01:58:28;;;;;;;6.30;2.45;;;;;;;0.92;69.48;101443.22;1039103;28;20304;-77
2022/04/02 01:59:02;;;;;;;2.38;2.17;;;;;;;0.95;69.38;101444.75;1045228;28;20303;-78
2022/04/02 01:59:38;;;;;;;4.13;2.78;;;;;;;0.92;69.54;101445.84;1045560;28;20752;-78
2022/04/02 02:00:11;;;;;;;4.30;2.42;;;;;;;0.92;69.37;101445.03;1048739;28;20310;-78
2022/04/02 02:00:46;;;;;;;3.85;3.05;;;;;;;0.90;69.61;101446.97;1052376;28;20695;-80
2022/04/02 02:01:21;;;;;;;4.25;2.33;;;;;;;0.91;69.70;101448.63;1053525;28;20328;-79
2022/04/02 02:01:53;;;;;;;4.13;2.40;;;;;;;0.97;69.37;101448.06;1053160;28;20667;-80
2022/04/02 02:02:26;;;;;;;4.13;3.08;;;;;;;0.95;68.69;101443.91;1050941;28;20310;-80
2022/04/02 02:02:58;;;;;;;5.55;2.50;;;;;;;0.93;69.09;101447.50;1051906;28;20282;-80
2022/04/02 02:03:30;;;;;;;7.85;2.65;;;;;;;0.95;68.93;101449.16;1052287;28;20309;-80
2022/04/02 02:04:01;;;;;;;3.72;2.90;;;;;;;0.95;69.55;101446.53;1056008;28;20348;-79
2022/04/02 02:04:34;;;;;;;3.13;2.47;;;;;;;0.87;69.91;101453.31;1056429;28;20296;-79
2022/04/02 02:05:06;;;;;;;4.55;2.75;;;;;;;0.87;70.45;101453.31;1055653;28;20300;-80
2022/04/02 02:05:38;;;;;;;3.78;2.70;;;;;;;0.88;70.38;101449.72;1051724;28;20758;-83
2022/04/02 02:06:13;;;;;;;2.22;2.05;;;;;;;0.88;69.88;101447.09;1047944;28;20309;-79
2022/04/02 02:06:50;;;;;;;4.97;2.63;;;;;;;0.91;69.85;101456.50;1051550;28;20290;-78
2022/04/02 02:07:26;;;;;;;4.22;2.58;;;;;;;0.91;69.68;101459.94;1051633;28;20683;-78
2022/04/02 02:07:58;;;;;;;4.25;2.67;;;;;;;0.92;69.35;101451.09;1053474;28;20687;-78
2022/04/02 02:08:45;;;;;;;3.28;2.58;;;;;;;0.91;69.64;101444.19;1051598;28;20317;-80
2022/04/02 02:09:44;;;;;;;5.15;2.58;;;;;;;0.88;69.49;101441.84;1036767;28;20675;-80
2022/04/02 02:10:26;;;;;;;6.38;2.67;;;;;;;0.86;69.56;101449.03;1053514;27;20314;-79
2022/04/02 02:11:08;;;;;;;3.20;2.80;;;;;;;0.88;69.39;101449.72;1056122;28;20305;-80
2022/04/02 02:11:52;;;;;;;3.42;2.58;;;;;;;0.83;70.53;101462.44;1047329;28;20319;-78
2022/04/02 02:12:23;;;;;;;4.03;2.35;;;;;;;0.81;70.45;101458.25;1044348;28;20299;-79
2022/04/02 02:13:11;;;;;;;3.92;2.60;;;;;;;0.86;70.24;101454.28;1047552;28;20299;-79
2022/04/02 02:13:49;;;;;;;3.60;2.53;;;;;;;0.86;69.96;101456.91;1059334;28;20812;-80
2022/04/02 02:14:24;;;;;;;2.97;2.15;;;;;;;0.83;70.09;101454.56;1051605;28;20316;-79
2022/04/02 02:15:17;;;;;;;3.20;2.33;;;;;;;0.87;70.16;101447.25;1047736;28;20299;-79
2022/04/02 02:15:59;;;;;;;9.18;3.05;;;;;;;0.88;69.88;101454.97;1039752;28;20303;-80
2022/04/02 02:16:31;;;;;;;3.58;2.65;;;;;;;0.85;70.17;101449.19;1047665;28;20290;-78
2022/04/02 02:17:03;;;;;;;6.03;3.53;;;;;;;0.87;69.69;101452.50;1043290;28;20299;-77
2022/04/02 02:17:34;;;;;;;3.15;2.38;;;;;;;0.86;69.31;101454.28;1045713;28;20763;-81
2022/04/02 02:18:06;;;;;;;7.72;2.90;;;;;;;0.81;69.61;101453.84;1051894;28;20298;-80
2022/04/02 02:18:37;;;;;;;4.07;2.97;;;;;;;0.88;70.02;101449.72;1049876;28;20473;-80
2022/04/02 02:19:09;;;;;;;3.95;3.05;;;;;;;0.83;69.77;101446.69;1056344;28;20289;-78
2022/04/02 02:19:42;;;;;;;4.35;3.38;;;;;;;0.86;69.55;101449.03;1056085;28;20380;-79
2022/04/02 02:20:15;;;;;;;3.63;2.83;;;;;;;0.83;70.24;101453.75;1056370;28;20775;-79
2022/04/02 02:20:47;;;;;;;5.88;3.00;;;;;;;0.83;70.69;101457.19;1051343;28;20294;-80
2022/04/02 02:21:18;;;;;;;3.05;2.75;;;;;;;0.84;70.41;101452.78;1051668;28;20718;-79
2022/04/02 02:21:51;;;;;;;5.03;2.30;;;;;;;0.84;69.65;101452.78;1051788;28;20301;-80
2022/04/02 02:22:23;;;;;;;3.17;2.63;;;;;;;0.82;70.18;101455.53;1045238;28;20729;-80
2022/04/02 02:22:55;;;;;;;5.40;2.58;;;;;;;0.85;69.90;101447.38;1046789;28;20661;-79
2022/04/02 02:23:26;;;;;;;3.53;2.75;;;;;;;0.84;69.83;101460.63;1047398;28;20299;-79
2022/04/02 02:23:58;;;;;;;5.13;2.42;;;;;;;0.85;69.65;101450.00;1048997;28;20727;-81
2022/04/02 02:24:32;;;;;;;4.53;2.15;;;;;;;0.82;69.43;101455.53;1051940;28;20322;-79
2022/04/02 02:25:04;;;;;;;6.43;3.05;;;;;;;0.83;69.89;101456.34;1055933;28;20301;-80
2022/04/02 02:25:36;;;;;;;4.00;2.78;;;;;;;0.84;69.79;101458.84;1056075;28;20297;-79
2022/04/02 02:26:07;;;;;;;5.13;3.05;;;;;;;0.80;70.16;101461.84;1045726;28;20662;-79
2022/04/02 02:26:39;;;;;;;3.50;2.65;;;;;;;0.77;70.16;101462.94;1051123;28;20298;-80
2022/04/02 02:27:11;;;;;;;3.05;2.15;;;;;;;0.82;69.76;101458.16;1047412;28;20728;-80
2022/04/02 02:27:47;;;;;;;4.35;2.70;;;;;;;0.83;69.48;101462.44;1048816;28;20297;-79
2022/04/02 02:28:23;;;;;;;3.80;2.50;;;;;;;0.84;69.82;101460.63;1051743;28;20305;-78
2022/04/02 02:28:56;;;;;;;5.22;2.90;;;;;;;0.80;70.49;101467.91;1047213;28;20741;-79
2022/04/02 02:29:33;;;;;;;4.07;2.53;;;;;;;0.77;70.80;101462.94;1043358;28;20314;-79
2022/04/02 02:30:18;;;;;;;4.80;2.35;;;;;;;0.78;70.83;101463.78;1045783;28;20295;-79
2022/04/02 02:30:52;;;;;;;3.80;2.45;;;;;;;0.81;69.96;101464.34;1050026;28;20325;-80
2022/04/02 02:31:24;;;;;;;5.25;2.40;;;;;;;0.81;69.74;101459.09;1051738;28;20299;-79
2022/04/02 02:31:56;;;;;;;4.95;2.53;;;;;;;0.83;70.04;101459.81;1043762;28;20299;-78
2022/04/02 02:32:27;;;;;;;3.03;2.40;;;;;;;0.81;69.71;101464.34;1044119;28;20302;-79
2022/04/02 02:35:51;;;;;;;2.88;2.13;;;;;;;0.77;70.44;101468.19;1049417;28;20820;-78
2022/04/02 02:36:34;;;;;;;2.33;1.38;;;;;;;0.78;70.69;101469.84;1054407;28;20567;-78
2022/04/02 02:37:11;;;;;;;3.15;2.33;;;;;;;0.71;70.67;101468.75;1047406;28;20305;-78
2022/04/02 02:38:08;;;;;;;4.35;2.40;;;;;;;0.73;70.57;101474.69;1043506;28;20764;-79
2022/04/02 02:38:47;;;;;;;5.45;2.20;;;;;;;0.74;70.80;101463.22;1045464;28;20346;-80
2022/04/02 02:39:24;;;;;;;3.67;2.88;;;;;;;0.75;70.60;101464.88;1050471;28;20303;-79
2022/04/02 02:40:13;;;;;;;6.10;2.22;;;;;;;0.76;70.69;101468.34;1047254;28;20854;-78
2022/04/02 02:40:45;;;;;;;6.57;2.80;;;;;;;0.74;70.71;101475.50;1047381;28;20299;-79
2022/04/02 02:41:21;;;;;;;5.50;2.80;;;;;;;0.73;70.66;101473.84;1050525;28;20301;-78
2022/04/02 02:41:57;;;;;;;5.93;2.72;;;;;;;0.71;70.54;101479.25;1047424;28;20299;-78
2022/04/02 02:42:39;;;;;;;3.20;2.30;;;;;;;0.71;71.24;101481.84;1047309;28;20298;-79
2022/04/02 02:43:33;;;;;;;2.58;2.22;;;;;;;0.71;71.41;101483.66;1049517;28;20401;-79
2022/04/02 02:44:14;;;;;;;;;;;;;;;0.71;70.99;101474.00;1055915;28;20806;-78
2022/04/02 02:44:54;;;;;;;5.75;2.92;;;;;;;0.71;70.90;101479.25;1047169;28;19976;-78
2022/04/02 02:45:27;;;;;;;5.13;2.42;;;;;;;0.70;70.79;101474.97;1051402;28;20301;-78
2022/04/02 02:46:03;;;;;;;4.28;2.83;;;;;;;0.70;70.86;101477.59;1049786;28;20838;-80